createdAt,value
2022-08-22T00:00:54.581Z,0.00
2022-08-22T00:01:54.652Z,0.00
2022-08-22T00:02:52.600Z,0.00
2022-08-22T00:02:57.786Z,0.00
2022-08-22T00:03:00.233Z,0.00
2022-08-22T00:03:03.567Z,0.00
2022-08-22T00:03:11.173Z,0.00
2022-08-22T00:03:18.646Z,0.00
2022-08-22T00:03:54.633Z,0.00
2022-08-22T00:04:54.646Z,0.00
2022-08-22T00:05:54.659Z,0.00
2022-08-22T00:06:54.675Z,0.00
2022-08-22T00:07:54.698Z,0.00
2022-08-22T00:08:54.705Z,0.00
2022-08-22T00:09:54.724Z,0.00
2022-08-22T00:10:54.747Z,0.00
2022-08-22T00:11:54.755Z,0.00
2022-08-22T00:12:54.765Z,0.00
2022-08-22T00:14:01.558Z,0.00
2022-08-22T00:14:54.796Z,0.00
2022-08-22T00:15:54.816Z,0.00
2022-08-22T00:16:54.827Z,0.00
2022-08-22T00:17:54.849Z,0.00
2022-08-22T00:18:54.858Z,0.00
2022-08-22T00:19:54.877Z,0.00
2022-08-22T00:20:54.991Z,0.00
2022-08-22T00:21:54.907Z,0.00
2022-08-22T00:22:54.921Z,0.00
2022-08-22T00:23:54.934Z,0.00
2022-08-22T00:24:54.954Z,0.00
2022-08-22T00:25:54.977Z,0.00
2022-08-22T00:26:54.980Z,0.00
2022-08-22T00:27:55.081Z,0.00
2022-08-22T00:28:55.019Z,0.00
2022-08-22T00:29:55.030Z,0.00
2022-08-22T00:30:55.055Z,0.00
2022-08-22T00:31:55.061Z,0.00
2022-08-22T00:32:55.072Z,0.00
2022-08-22T00:33:55.091Z,0.00
2022-08-22T00:34:55.106Z,0.00
2022-08-22T00:35:55.123Z,0.00
2022-08-22T00:36:55.135Z,0.00
2022-08-22T00:37:55.263Z,0.00
2022-08-22T00:38:55.169Z,0.00
2022-08-22T00:39:55.212Z,0.00
2022-08-22T00:40:55.210Z,0.00
2022-08-22T00:41:55.213Z,0.00
2022-08-22T00:42:55.232Z,0.00
2022-08-22T00:43:55.245Z,0.00
2022-08-22T00:44:55.257Z,0.00
2022-08-22T00:45:55.278Z,0.00
2022-08-22T00:46:55.294Z,0.00
2022-08-22T00:47:55.471Z,0.00
2022-08-22T00:48:55.350Z,0.00
2022-08-22T00:49:55.337Z,0.00
2022-08-22T00:50:55.351Z,0.00
2022-08-22T00:51:55.370Z,0.00
2022-08-22T00:52:56.285Z,0.00
2022-08-22T00:53:55.395Z,0.00
2022-08-22T00:54:55.414Z,0.00
2022-08-22T00:55:55.430Z,0.00
2022-08-22T00:56:55.445Z,0.00
2022-08-22T00:57:55.586Z,0.00
2022-08-22T00:58:55.476Z,0.00
2022-08-22T00:59:55.491Z,0.00
2022-08-22T01:00:55.536Z,0.00
2022-08-22T01:01:55.523Z,0.00
2022-08-22T01:02:55.537Z,0.00
2022-08-22T01:03:55.554Z,0.00
2022-08-22T01:04:55.569Z,0.00
2022-08-22T01:05:55.582Z,0.00
2022-08-22T01:06:55.598Z,0.00
2022-08-22T01:07:55.670Z,0.00
2022-08-22T01:08:55.638Z,0.00
2022-08-22T01:09:55.647Z,0.00
2022-08-22T01:10:55.660Z,0.00
2022-08-22T01:11:55.676Z,0.00
2022-08-22T01:12:55.694Z,0.00
2022-08-22T01:13:55.707Z,0.00
2022-08-22T01:14:55.731Z,0.00
2022-08-22T01:15:55.743Z,0.00
2022-08-22T01:16:55.755Z,0.00
2022-08-22T01:17:55.809Z,0.00
2022-08-22T01:18:55.789Z,0.00
2022-08-22T01:19:55.798Z,0.00
2022-08-22T01:20:55.814Z,0.00
2022-08-22T01:21:55.828Z,0.00
2022-08-22T01:22:55.847Z,0.00
2022-08-22T01:23:55.864Z,0.00
2022-08-22T01:24:55.876Z,0.00
2022-08-22T01:25:55.894Z,0.00
2022-08-22T01:26:55.910Z,0.00
2022-08-22T01:27:55.945Z,0.00
2022-08-22T01:28:55.938Z,0.00
2022-08-22T01:29:55.954Z,0.00
2022-08-22T01:30:55.987Z,0.00
2022-08-22T01:31:55.986Z,0.00
2022-08-22T01:32:56.961Z,0.00
2022-08-22T01:33:56.017Z,0.00
2022-08-22T01:34:56.031Z,0.00
2022-08-22T01:35:56.051Z,0.00
2022-08-22T01:36:56.064Z,0.00
2022-08-22T01:37:56.194Z,0.00
2022-08-22T01:38:56.096Z,0.00
2022-08-22T01:39:56.206Z,0.00
2022-08-22T01:40:56.123Z,0.00
2022-08-22T01:41:56.140Z,0.00
2022-08-22T01:42:56.158Z,0.00
2022-08-22T01:44:00.728Z,0.00
2022-08-22T01:44:56.181Z,0.00
2022-08-22T01:45:56.202Z,0.00
2022-08-22T01:46:56.216Z,0.00
2022-08-22T01:47:56.233Z,0.00
2022-08-22T01:48:56.251Z,0.00
2022-08-22T01:49:56.362Z,0.00
2022-08-22T01:50:56.278Z,0.00
2022-08-22T01:51:56.295Z,0.00
2022-08-22T01:52:56.306Z,0.00
2022-08-22T01:53:56.337Z,0.00
2022-08-22T01:54:56.338Z,0.00
2022-08-22T01:55:56.352Z,0.00
2022-08-22T01:56:56.371Z,0.00
2022-08-22T01:57:56.389Z,0.00
2022-08-22T01:58:56.400Z,0.00
2022-08-22T01:59:56.515Z,0.00
2022-08-22T02:00:56.497Z,0.00
2022-08-22T02:01:56.442Z,0.00
2022-08-22T02:02:56.460Z,0.00
2022-08-22T02:03:56.475Z,0.00
2022-08-22T02:04:56.489Z,0.00
2022-08-22T02:05:56.501Z,0.00
2022-08-22T02:06:56.521Z,0.00
2022-08-22T02:07:56.550Z,0.00
2022-08-22T02:08:56.550Z,0.00
2022-08-22T02:09:56.571Z,0.00
2022-08-22T02:10:56.581Z,0.00
2022-08-22T02:11:56.596Z,0.00
2022-08-22T02:12:56.612Z,0.00
2022-08-22T02:13:56.626Z,0.00
2022-08-22T02:14:56.645Z,0.00
2022-08-22T02:15:56.655Z,0.00
2022-08-22T02:16:56.672Z,0.00
2022-08-22T02:17:56.813Z,0.00
2022-08-22T02:18:56.710Z,0.00
2022-08-22T02:19:56.720Z,0.00
2022-08-22T02:20:56.735Z,0.00
2022-08-22T02:21:56.748Z,0.00
2022-08-22T02:22:56.764Z,0.00
2022-08-22T02:23:56.791Z,0.00
2022-08-22T02:24:56.796Z,0.00
2022-08-22T02:25:56.813Z,0.00
2022-08-22T02:26:56.824Z,0.00
2022-08-22T02:27:56.969Z,0.00
2022-08-22T02:28:57.930Z,0.00
2022-08-22T02:29:56.868Z,0.00
2022-08-22T02:30:56.887Z,0.00
2022-08-22T02:31:56.896Z,0.00
2022-08-22T02:32:56.915Z,0.00
2022-08-22T02:33:56.929Z,0.00
2022-08-22T02:34:56.947Z,0.00
2022-08-22T02:35:56.962Z,0.00
2022-08-22T02:36:58.093Z,0.00
2022-08-22T02:37:57.199Z,0.00
2022-08-22T02:38:57.009Z,0.00
2022-08-22T02:39:57.083Z,0.00
2022-08-22T02:40:57.034Z,0.00
2022-08-22T02:41:57.056Z,0.00
2022-08-22T02:42:57.070Z,0.00
2022-08-22T02:43:57.080Z,0.00
2022-08-22T02:44:57.203Z,0.00
2022-08-22T02:45:57.115Z,0.00
2022-08-22T02:46:57.126Z,0.00
2022-08-22T02:47:57.411Z,0.00
2022-08-22T02:48:57.155Z,0.00
2022-08-22T02:49:57.176Z,0.00
2022-08-22T02:50:57.189Z,0.00
2022-08-22T02:51:57.202Z,0.00
2022-08-22T02:52:57.216Z,0.00
2022-08-22T02:53:57.238Z,0.00
2022-08-22T02:54:57.278Z,0.00
2022-08-22T02:55:57.263Z,0.00
2022-08-22T02:56:57.277Z,0.00
2022-08-22T02:57:57.403Z,0.00
2022-08-22T02:58:59.953Z,0.00
2022-08-22T02:59:57.325Z,0.00
2022-08-22T03:00:57.363Z,0.00
2022-08-22T03:01:57.459Z,0.00
2022-08-22T03:02:57.371Z,0.00
2022-08-22T03:03:57.384Z,0.00
2022-08-22T03:04:57.396Z,0.00
2022-08-22T03:06:01.091Z,0.00
2022-08-22T03:06:57.428Z,0.00
2022-08-22T03:07:57.663Z,0.00
2022-08-22T03:08:57.463Z,0.00
2022-08-22T03:09:57.473Z,0.00
2022-08-22T03:10:57.490Z,0.00
2022-08-22T03:11:57.607Z,0.00
2022-08-22T03:12:57.779Z,0.00
2022-08-22T03:13:57.533Z,0.00
2022-08-22T03:14:57.553Z,0.00
2022-08-22T03:15:57.570Z,0.00
2022-08-22T03:16:57.580Z,0.00
2022-08-22T03:17:57.807Z,0.00
2022-08-22T03:18:57.608Z,0.00
2022-08-22T03:19:57.628Z,0.00
2022-08-22T03:20:57.641Z,0.00
2022-08-22T03:21:57.659Z,0.00
2022-08-22T03:22:57.672Z,0.00
2022-08-22T03:23:57.684Z,0.00
2022-08-22T03:24:57.702Z,0.00
2022-08-22T03:25:57.716Z,0.00
2022-08-22T03:26:57.737Z,0.00
2022-08-22T03:27:57.794Z,0.00
2022-08-22T03:28:59.771Z,0.00
2022-08-22T03:29:57.779Z,0.00
2022-08-22T03:30:57.789Z,0.00
2022-08-22T03:31:57.803Z,0.00
2022-08-22T03:32:57.823Z,0.00
2022-08-22T03:33:57.833Z,0.00
2022-08-22T03:34:57.855Z,0.00
2022-08-22T03:35:57.866Z,0.00
2022-08-22T03:36:57.882Z,0.00
2022-08-22T03:37:58.034Z,0.00
2022-08-22T03:38:57.913Z,0.00
2022-08-22T03:39:57.971Z,0.00
2022-08-22T03:40:57.939Z,0.00
2022-08-22T03:41:57.956Z,0.00
2022-08-22T03:42:57.970Z,0.00
2022-08-22T03:43:57.986Z,0.00
2022-08-22T03:44:58.002Z,0.00
2022-08-22T03:45:58.013Z,0.00
2022-08-22T03:46:58.029Z,0.00
2022-08-22T03:47:58.268Z,0.00
2022-08-22T03:48:58.058Z,0.00
2022-08-22T03:49:59.738Z,0.00
2022-08-22T03:50:58.091Z,0.00
2022-08-22T03:51:58.105Z,0.00
2022-08-22T03:52:58.116Z,0.00
2022-08-22T03:53:58.231Z,0.00
2022-08-22T03:54:58.154Z,0.00
2022-08-22T03:55:58.167Z,0.00
2022-08-22T03:57:00.329Z,0.00
2022-08-22T03:57:58.444Z,0.00
2022-08-22T03:58:58.215Z,0.00
2022-08-22T03:59:58.224Z,0.00
2022-08-22T04:00:58.294Z,0.00
2022-08-22T04:01:58.249Z,0.00
2022-08-22T04:02:58.269Z,0.00
2022-08-22T04:03:58.279Z,0.00
2022-08-22T04:04:58.292Z,0.00
2022-08-22T04:05:58.309Z,0.00
2022-08-22T04:06:58.325Z,0.00
2022-08-22T04:07:58.477Z,0.00
2022-08-22T04:08:58.350Z,0.00
2022-08-22T04:09:58.373Z,0.00
2022-08-22T04:10:58.380Z,0.00
2022-08-22T04:11:58.398Z,0.00
2022-08-22T04:12:58.409Z,0.00
2022-08-22T04:13:58.524Z,0.00
2022-08-22T04:14:58.440Z,0.00
2022-08-22T04:15:58.458Z,0.00
2022-08-22T04:16:58.468Z,0.00
2022-08-22T04:17:58.612Z,0.00
2022-08-22T04:18:58.500Z,0.00
2022-08-22T04:19:58.512Z,0.00
2022-08-22T04:20:58.530Z,0.00
2022-08-22T04:21:58.538Z,4.00
2022-08-22T04:22:58.553Z,0.00
2022-08-22T04:23:58.623Z,0.00
2022-08-22T04:24:58.613Z,4.00
2022-08-22T04:25:58.599Z,0.00
2022-08-22T04:26:58.615Z,0.00
2022-08-22T04:27:58.905Z,0.00
2022-08-22T04:28:58.645Z,0.00
2022-08-22T04:29:58.655Z,0.00
2022-08-22T04:30:58.677Z,0.00
2022-08-22T04:31:58.686Z,4.00
2022-08-22T04:32:58.702Z,4.00
2022-08-22T04:33:58.715Z,4.00
2022-08-22T04:34:58.730Z,4.00
2022-08-22T04:35:58.744Z,4.00
2022-08-22T04:36:58.757Z,4.00
2022-08-22T04:37:58.942Z,4.00
2022-08-22T04:38:58.787Z,4.00
2022-08-22T04:39:58.824Z,4.00
2022-08-22T04:41:02.584Z,4.00
2022-08-22T04:42:16.006Z,4.00
2022-08-22T04:42:58.848Z,8.00
2022-08-22T04:43:58.861Z,8.00
2022-08-22T04:44:58.880Z,8.00
2022-08-22T04:45:58.896Z,12.00
2022-08-22T04:46:58.907Z,8.00
2022-08-22T04:47:59.066Z,8.00
2022-08-22T04:48:58.934Z,12.00
2022-08-22T04:49:58.948Z,12.00
2022-08-22T04:50:58.967Z,12.00
2022-08-22T04:51:58.976Z,12.00
2022-08-22T04:52:58.992Z,12.00
2022-08-22T04:53:59.010Z,16.00
2022-08-22T04:54:59.022Z,16.00
2022-08-22T04:55:59.038Z,20.00
2022-08-22T04:56:59.084Z,20.00
2022-08-22T04:57:59.292Z,16.00
2022-08-22T04:58:59.084Z,16.00
2022-08-22T04:59:59.096Z,20.00
2022-08-22T05:00:59.112Z,20.00
2022-08-22T05:01:59.237Z,20.00
2022-08-22T05:02:59.138Z,20.00
2022-08-22T05:03:59.201Z,20.00
2022-08-22T05:04:59.171Z,24.00
2022-08-22T05:05:59.181Z,24.00
2022-08-22T05:06:59.199Z,24.00
2022-08-22T05:07:59.410Z,24.00
2022-08-22T05:08:59.230Z,28.00
2022-08-22T05:09:59.241Z,28.00
2022-08-22T05:10:59.256Z,24.00
2022-08-22T05:11:59.270Z,28.00
2022-08-22T05:12:59.285Z,28.00
2022-08-22T05:13:59.298Z,28.00
2022-08-22T05:14:59.413Z,28.00
2022-08-22T05:15:59.330Z,28.00
2022-08-22T05:16:59.340Z,32.00
2022-08-22T05:17:59.575Z,32.00
2022-08-22T05:18:59.375Z,32.00
2022-08-22T05:19:59.391Z,32.00
2022-08-22T05:20:59.400Z,36.00
2022-08-22T05:21:59.416Z,32.00
2022-08-22T05:22:59.441Z,36.00
2022-08-22T05:23:59.445Z,36.00
2022-08-22T05:24:59.464Z,36.00
2022-08-22T05:25:59.485Z,36.00
2022-08-22T05:26:59.488Z,36.00
2022-08-22T05:27:59.657Z,40.00
2022-08-22T05:28:59.519Z,40.00
2022-08-22T05:29:59.532Z,44.00
2022-08-22T05:30:59.543Z,44.00
2022-08-22T05:31:59.560Z,44.00
2022-08-22T05:32:59.574Z,44.00
2022-08-22T05:33:59.588Z,44.00
2022-08-22T05:34:59.607Z,44.00
2022-08-22T05:35:59.621Z,44.00
2022-08-22T05:36:59.686Z,48.00
2022-08-22T05:37:59.859Z,44.00
2022-08-22T05:38:59.662Z,44.00
2022-08-22T05:39:59.769Z,44.00
2022-08-22T05:40:59.692Z,44.00
2022-08-22T05:41:59.706Z,44.00
2022-08-22T05:42:59.721Z,48.00
2022-08-22T05:43:59.735Z,48.00
2022-08-22T05:44:59.749Z,52.00
2022-08-22T05:45:59.765Z,48.00
2022-08-22T05:46:59.777Z,48.00
2022-08-22T05:48:00.084Z,48.00
2022-08-22T05:48:59.816Z,48.00
2022-08-22T05:49:59.822Z,52.00
2022-08-22T05:50:59.834Z,52.00
2022-08-22T05:51:59.848Z,52.00
2022-08-22T05:52:59.862Z,52.00
2022-08-22T05:53:59.876Z,52.00
2022-08-22T05:54:59.891Z,56.00
2022-08-22T05:55:59.909Z,56.00
2022-08-22T05:56:59.923Z,52.00
2022-08-22T05:58:00.128Z,56.00
2022-08-22T05:58:59.956Z,52.00
2022-08-22T06:00:00.081Z,52.00
2022-08-22T06:00:59.983Z,52.00
2022-08-22T06:02:00.136Z,56.00
2022-08-22T06:03:00.009Z,56.00
2022-08-22T06:04:00.028Z,56.00
2022-08-22T06:05:00.091Z,60.00
2022-08-22T06:06:00.052Z,60.00
2022-08-22T06:07:00.080Z,64.00
2022-08-22T06:08:00.238Z,76.00
2022-08-22T06:09:00.100Z,84.00
2022-08-22T06:10:00.142Z,88.00
2022-08-22T06:11:00.125Z,88.00
2022-08-22T06:12:00.139Z,88.00
2022-08-22T06:13:00.152Z,88.00
2022-08-22T06:14:00.184Z,92.00
2022-08-22T06:15:00.184Z,96.00
2022-08-22T06:16:00.301Z,100.00
2022-08-22T06:17:00.214Z,104.00
2022-08-22T06:18:00.597Z,108.00
2022-08-22T06:19:00.243Z,108.00
2022-08-22T06:20:00.281Z,108.00
2022-08-22T06:21:00.271Z,112.00
2022-08-22T06:22:00.286Z,104.00
2022-08-22T06:23:00.300Z,108.00
2022-08-22T06:24:00.316Z,108.00
2022-08-22T06:25:00.331Z,108.00
2022-08-22T06:26:00.344Z,108.00
2022-08-22T06:27:00.358Z,108.00
2022-08-22T06:28:00.593Z,108.00
2022-08-22T06:29:00.390Z,100.00
2022-08-22T06:30:00.409Z,104.00
2022-08-22T06:31:00.417Z,108.00
2022-08-22T06:32:00.438Z,108.00
2022-08-22T06:33:01.101Z,112.00
2022-08-22T06:34:00.467Z,112.00
2022-08-22T06:35:00.481Z,104.00
2022-08-22T06:36:00.494Z,112.00
2022-08-22T06:37:00.508Z,104.00
2022-08-22T06:38:00.599Z,100.00
2022-08-22T06:39:00.536Z,96.00
2022-08-22T06:40:00.616Z,112.00
2022-08-22T06:41:00.568Z,112.00
2022-08-22T06:42:00.580Z,116.00
2022-08-22T06:43:00.595Z,116.00
2022-08-22T06:44:00.612Z,116.00
2022-08-22T06:45:00.651Z,116.00
2022-08-22T06:46:00.637Z,116.00
2022-08-22T06:47:00.657Z,120.00
2022-08-22T06:48:01.091Z,116.00
2022-08-22T06:49:00.686Z,116.00
2022-08-22T06:50:00.697Z,116.00
2022-08-22T06:51:00.712Z,112.00
2022-08-22T06:52:00.734Z,112.00
2022-08-22T06:53:00.744Z,108.00
2022-08-22T06:54:00.759Z,120.00
2022-08-22T06:55:00.772Z,128.00
2022-08-22T06:56:00.788Z,136.00
2022-08-22T06:57:00.808Z,128.00
2022-08-22T06:58:00.934Z,136.00
2022-08-22T06:59:00.831Z,148.00
2022-08-22T07:00:00.845Z,160.00
2022-08-22T07:01:11.276Z,172.00
2022-08-22T07:02:00.946Z,180.00
2022-08-22T07:03:00.892Z,180.00
2022-08-22T07:04:00.903Z,184.00
2022-08-22T07:05:00.921Z,188.00
2022-08-22T07:06:00.939Z,184.00
2022-08-22T07:07:00.953Z,184.00
2022-08-22T07:08:01.129Z,180.00
2022-08-22T07:09:06.841Z,184.00
2022-08-22T07:10:00.993Z,188.00
2022-08-22T07:11:01.006Z,196.00
2022-08-22T07:12:01.031Z,200.00
2022-08-22T07:13:01.043Z,212.00
2022-08-22T07:14:01.058Z,184.00
2022-08-22T07:15:01.068Z,176.00
2022-08-22T07:16:01.081Z,196.00
2022-08-22T07:17:01.098Z,208.00
2022-08-22T07:18:01.212Z,240.00
2022-08-22T07:19:01.133Z,248.00
2022-08-22T07:20:01.243Z,232.00
2022-08-22T07:21:01.155Z,232.00
2022-08-22T07:22:01.168Z,240.00
2022-08-22T07:23:01.184Z,208.00
2022-08-22T07:24:01.205Z,196.00
2022-08-22T07:25:01.213Z,168.00
2022-08-22T07:26:01.230Z,152.00
2022-08-22T07:27:01.242Z,148.00
2022-08-22T07:28:03.763Z,144.00
2022-08-22T07:29:01.287Z,140.00
2022-08-22T07:30:01.290Z,140.00
2022-08-22T07:31:01.306Z,136.00
2022-08-22T07:32:01.314Z,132.00
2022-08-22T07:33:26.862Z,136.00
2022-08-22T07:34:01.361Z,168.00
2022-08-22T07:35:01.475Z,140.00
2022-08-22T07:36:01.381Z,148.00
2022-08-22T07:37:01.390Z,160.00
2022-08-22T07:38:01.641Z,196.00
2022-08-22T07:39:01.423Z,160.00
2022-08-22T07:40:01.489Z,152.00
2022-08-22T07:41:01.448Z,140.00
2022-08-22T07:42:01.474Z,136.00
2022-08-22T07:43:01.487Z,148.00
2022-08-22T07:44:01.493Z,184.00
2022-08-22T07:45:01.510Z,236.00
2022-08-22T07:46:01.531Z,232.00
2022-08-22T07:47:01.548Z,172.00
2022-08-22T07:48:01.689Z,144.00
2022-08-22T07:49:10.035Z,144.00
2022-08-22T07:50:01.589Z,216.00
2022-08-22T07:51:01.606Z,248.00
2022-08-22T07:52:01.618Z,248.00
2022-08-22T07:53:01.632Z,248.00
2022-08-22T07:54:01.642Z,248.00
2022-08-22T07:55:01.659Z,248.00
2022-08-22T07:56:01.682Z,244.00
2022-08-22T07:57:01.690Z,248.00
2022-08-22T07:58:01.699Z,180.00
2022-08-22T07:59:01.719Z,232.00
2022-08-22T08:00:01.732Z,244.00
2022-08-22T08:01:01.810Z,252.00
2022-08-22T08:02:01.760Z,252.00
2022-08-22T08:03:01.778Z,252.00
2022-08-22T08:04:01.791Z,260.00
2022-08-22T08:05:01.803Z,260.00
2022-08-22T08:06:01.824Z,260.00
2022-08-22T08:07:01.837Z,264.00
2022-08-22T08:08:01.848Z,268.00
2022-08-22T08:09:01.866Z,276.00
2022-08-22T08:10:01.880Z,280.00
2022-08-22T08:11:01.892Z,280.00
2022-08-22T08:12:01.915Z,284.00
2022-08-22T08:13:02.985Z,284.00
2022-08-22T08:14:01.941Z,288.00
2022-08-22T08:15:01.953Z,292.00
2022-08-22T08:16:01.973Z,292.00
2022-08-22T08:17:01.983Z,296.00
2022-08-22T08:18:02.000Z,300.00
2022-08-22T08:19:02.015Z,304.00
2022-08-22T08:20:02.030Z,308.00
2022-08-22T08:21:02.042Z,312.00
2022-08-22T08:22:02.055Z,316.00
2022-08-22T08:23:02.078Z,320.00
2022-08-22T08:24:02.111Z,320.00
2022-08-22T08:25:02.102Z,328.00
2022-08-22T08:26:02.122Z,328.00
2022-08-22T08:27:02.134Z,332.00
2022-08-22T08:28:02.313Z,332.00
2022-08-22T08:29:02.212Z,336.00
2022-08-22T08:30:02.177Z,336.00
2022-08-22T08:31:02.194Z,340.00
2022-08-22T08:32:02.211Z,348.00
2022-08-22T08:33:25.692Z,352.00
2022-08-22T08:34:02.242Z,348.00
2022-08-22T08:35:02.257Z,352.00
2022-08-22T08:36:03.949Z,356.00
2022-08-22T08:37:02.286Z,356.00
2022-08-22T08:38:02.304Z,360.00
2022-08-22T08:39:02.317Z,364.00
2022-08-22T08:40:02.440Z,372.00
2022-08-22T08:41:02.347Z,376.00
2022-08-22T08:42:02.363Z,376.00
2022-08-22T08:43:02.376Z,380.00
2022-08-22T08:44:02.397Z,384.00
2022-08-22T08:45:02.472Z,384.00
2022-08-22T08:46:02.421Z,392.00
2022-08-22T08:47:02.440Z,396.00
2022-08-22T08:48:02.457Z,400.00
2022-08-22T08:49:02.478Z,400.00
2022-08-22T08:50:02.484Z,404.00
2022-08-22T08:51:02.507Z,408.00
2022-08-22T08:52:02.520Z,412.00
2022-08-22T08:53:02.534Z,420.00
2022-08-22T08:54:02.557Z,420.00
2022-08-22T08:55:02.569Z,424.00
2022-08-22T08:56:02.588Z,424.00
2022-08-22T08:57:02.618Z,428.00
2022-08-22T08:58:06.563Z,436.00
2022-08-22T08:59:02.634Z,436.00
2022-08-22T09:00:02.649Z,440.00
2022-08-22T09:01:02.716Z,448.00
2022-08-22T09:02:02.683Z,452.00
2022-08-22T09:03:06.958Z,460.00
2022-08-22T09:04:02.726Z,460.00
2022-08-22T09:05:02.730Z,464.00
2022-08-22T09:06:02.747Z,468.00
2022-08-22T09:07:02.761Z,472.00
2022-08-22T09:08:02.782Z,476.00
2022-08-22T09:09:02.795Z,480.00
2022-08-22T09:10:02.814Z,484.00
2022-08-22T09:11:02.835Z,492.00
2022-08-22T09:12:02.847Z,496.00
2022-08-22T09:13:12.541Z,508.00
2022-08-22T09:14:02.879Z,508.00
2022-08-22T09:15:02.894Z,516.00
2022-08-22T09:16:05.289Z,528.00
2022-08-22T09:17:02.934Z,532.00
2022-08-22T09:18:02.942Z,540.00
2022-08-22T09:19:02.977Z,548.00
2022-08-22T09:20:02.978Z,552.00
2022-08-22T09:21:02.993Z,560.00
2022-08-22T09:22:03.014Z,568.00
2022-08-22T09:23:03.033Z,576.00
2022-08-22T09:24:03.049Z,584.00
2022-08-22T09:25:06.187Z,592.00
2022-08-22T09:26:03.076Z,596.00
2022-08-22T09:27:03.113Z,604.00
2022-08-22T09:28:03.111Z,616.00
2022-08-22T09:29:03.131Z,624.00
2022-08-22T09:30:03.248Z,628.00
2022-08-22T09:31:03.164Z,636.00
2022-08-22T09:32:03.184Z,652.00
2022-08-22T09:33:03.197Z,656.00
2022-08-22T09:34:05.207Z,664.00
2022-08-22T09:35:03.229Z,672.00
2022-08-22T09:36:03.253Z,680.00
2022-08-22T09:37:03.264Z,688.00
2022-08-22T09:38:03.282Z,700.00
2022-08-22T09:39:03.301Z,712.00
2022-08-22T09:40:03.350Z,716.00
2022-08-22T09:41:03.335Z,728.00
2022-08-22T09:42:03.480Z,736.00
2022-08-22T09:43:03.372Z,744.00
2022-08-22T09:44:03.384Z,752.00
2022-08-22T09:45:03.404Z,760.00
2022-08-22T09:46:03.423Z,768.00
2022-08-22T09:47:03.440Z,776.00
2022-08-22T09:48:07.045Z,784.00
2022-08-22T09:49:05.581Z,792.00
2022-08-22T09:50:03.491Z,800.00
2022-08-22T09:51:28.685Z,808.00
2022-08-22T09:52:14.403Z,820.00
2022-08-22T09:53:03.544Z,832.00
2022-08-22T09:54:03.560Z,840.00
2022-08-22T09:55:03.577Z,848.00
2022-08-22T09:56:15.647Z,856.00
2022-08-22T09:57:03.635Z,864.00
2022-08-22T09:58:03.642Z,872.00
2022-08-22T09:59:03.645Z,880.00
2022-08-22T10:00:03.665Z,892.00
2022-08-22T10:01:03.740Z,896.00
2022-08-22T10:02:05.979Z,904.00
2022-08-22T10:03:03.721Z,916.00
2022-08-22T10:04:03.737Z,924.00
2022-08-22T10:05:04.117Z,928.00
2022-08-22T10:06:03.769Z,936.00
2022-08-22T10:07:06.409Z,948.00
2022-08-22T10:08:03.809Z,952.00
2022-08-22T10:09:03.828Z,964.00
2022-08-22T10:10:03.854Z,964.00
2022-08-22T10:11:03.859Z,972.00
2022-08-22T10:12:03.880Z,980.00
2022-08-22T10:13:03.907Z,988.00
2022-08-22T10:14:03.916Z,992.00
2022-08-22T10:15:03.928Z,1000.00
2022-08-22T10:16:03.948Z,1008.00
2022-08-22T10:17:03.964Z,1016.00
2022-08-22T10:18:03.987Z,1020.00
2022-08-22T10:19:05.195Z,1032.00
2022-08-22T10:20:04.022Z,1036.00
2022-08-22T10:21:04.041Z,1044.00
2022-08-22T10:22:04.059Z,1044.00
2022-08-22T10:23:04.113Z,1052.00
2022-08-22T10:24:07.238Z,1060.00
2022-08-22T10:25:04.113Z,1068.00
2022-08-22T10:26:04.133Z,1072.00
2022-08-22T10:27:04.151Z,1076.00
2022-08-22T10:28:04.202Z,1080.00
2022-08-22T10:29:04.188Z,1088.00
2022-08-22T10:30:04.206Z,1096.00
2022-08-22T10:31:04.220Z,1100.00
2022-08-22T10:32:07.735Z,1108.00
2022-08-22T10:33:05.333Z,1116.00
2022-08-22T10:34:04.285Z,1120.00
2022-08-22T10:35:06.226Z,1124.00
2022-08-22T10:36:04.717Z,1132.00
2022-08-22T10:37:04.351Z,1136.00
2022-08-22T10:38:04.355Z,1144.00
2022-08-22T10:39:09.527Z,1148.00
2022-08-22T10:40:04.472Z,1152.00
2022-08-22T10:41:08.814Z,1156.00
2022-08-22T10:42:04.443Z,1164.00
2022-08-22T10:43:04.462Z,1172.00
2022-08-22T10:44:04.538Z,1172.00
2022-08-22T10:45:04.486Z,1180.00
2022-08-22T10:46:04.604Z,1184.00
2022-08-22T10:47:04.525Z,1188.00
2022-08-22T10:48:04.560Z,1196.00
2022-08-22T10:49:05.724Z,1200.00
2022-08-22T10:50:10.747Z,1200.00
2022-08-22T10:51:08.844Z,1208.00
2022-08-22T10:52:13.678Z,1208.00
2022-08-22T10:53:04.638Z,1212.00
2022-08-22T10:54:04.660Z,1224.00
2022-08-22T10:55:05.824Z,1228.00
2022-08-22T10:56:04.699Z,1232.00
2022-08-22T10:57:06.707Z,1236.00
2022-08-22T10:58:04.745Z,1240.00
2022-08-22T10:59:04.753Z,1244.00
2022-08-22T11:00:04.773Z,1244.00
2022-08-22T11:01:37.793Z,1248.00
2022-08-22T11:02:04.838Z,1252.00
2022-08-22T11:03:04.829Z,1252.00
2022-08-22T11:04:04.852Z,1252.00
2022-08-22T11:05:04.869Z,1256.00
2022-08-22T11:06:04.886Z,1260.00
2022-08-22T11:07:04.907Z,1264.00
2022-08-22T11:08:04.927Z,1268.00
2022-08-22T11:09:04.942Z,1272.00
2022-08-22T11:10:04.971Z,1276.00
2022-08-22T11:11:04.996Z,1280.00
2022-08-22T11:12:05.006Z,1284.00
2022-08-22T11:13:05.021Z,1280.00
2022-08-22T11:14:05.038Z,1288.00
2022-08-22T11:15:05.060Z,1288.00
2022-08-22T11:16:05.076Z,1288.00
2022-08-22T11:17:23.662Z,1288.00
2022-08-22T11:18:05.118Z,1292.00
2022-08-22T11:19:15.253Z,1292.00
2022-08-22T11:20:05.158Z,1296.00
2022-08-22T11:21:05.175Z,1300.00
2022-08-22T11:22:05.198Z,1300.00
2022-08-22T11:23:05.214Z,1304.00
2022-08-22T11:24:05.233Z,1308.00
2022-08-22T11:25:05.258Z,1304.00
2022-08-22T11:26:05.441Z,1308.00
2022-08-22T11:27:07.208Z,1308.00
2022-08-22T11:28:05.313Z,1312.00
2022-08-22T11:29:13.258Z,1312.00
2022-08-22T11:30:05.356Z,1312.00
2022-08-22T11:31:07.103Z,1316.00
2022-08-22T11:32:06.072Z,1320.00
2022-08-22T11:33:05.528Z,1316.00
2022-08-22T11:34:05.765Z,1320.00
2022-08-22T11:35:09.249Z,1320.00
2022-08-22T11:36:05.472Z,1316.00
2022-08-22T11:37:11.717Z,1324.00
2022-08-22T11:38:05.514Z,1324.00
2022-08-22T11:39:09.901Z,1324.00
2022-08-22T11:40:05.652Z,1324.00
2022-08-22T11:41:05.682Z,1328.00
2022-08-22T11:42:05.590Z,1324.00
2022-08-22T11:43:06.137Z,1320.00
2022-08-22T11:44:05.633Z,1320.00
2022-08-22T11:45:05.652Z,1320.00
2022-08-22T11:46:05.680Z,1320.00
2022-08-22T11:47:05.690Z,1320.00
2022-08-22T11:48:05.716Z,1324.00
2022-08-22T11:49:05.729Z,1324.00
2022-08-22T11:50:13.396Z,1324.00
2022-08-22T11:51:13.073Z,1324.00
2022-08-22T11:52:05.786Z,1324.00
2022-08-22T11:53:07.551Z,1324.00
2022-08-22T11:54:05.827Z,1324.00
2022-08-22T11:55:07.158Z,1324.00
2022-08-22T11:56:05.869Z,1320.00
2022-08-22T11:57:05.885Z,1324.00
2022-08-22T11:58:05.921Z,1320.00
2022-08-22T11:59:05.928Z,1320.00
2022-08-22T12:00:05.964Z,1320.00
2022-08-22T12:01:06.073Z,1320.00
2022-08-22T12:02:06.009Z,1316.00
2022-08-22T12:03:06.010Z,1316.00
2022-08-22T12:04:06.023Z,1320.00
2022-08-22T12:05:06.049Z,1316.00
2022-08-22T12:06:06.063Z,1320.00
2022-08-22T12:07:06.090Z,1320.00
2022-08-22T12:08:06.125Z,1320.00
2022-08-22T12:09:06.126Z,1316.00
2022-08-22T12:10:06.147Z,1316.00
2022-08-22T12:11:06.173Z,1316.00
2022-08-22T12:12:06.190Z,1312.00
2022-08-22T12:13:06.205Z,1308.00
2022-08-22T12:14:06.826Z,1316.00
2022-08-22T12:15:08.956Z,1312.00
2022-08-22T12:16:06.265Z,1312.00
2022-08-22T12:17:06.287Z,1304.00
2022-08-22T12:18:06.306Z,1308.00
2022-08-22T12:19:06.330Z,1308.00
2022-08-22T12:20:16.992Z,1300.00
2022-08-22T12:21:06.370Z,1300.00
2022-08-22T12:22:06.405Z,1300.00
2022-08-22T12:23:06.411Z,1296.00
2022-08-22T12:24:06.463Z,1296.00
2022-08-22T12:25:06.448Z,1292.00
2022-08-22T12:26:10.980Z,1292.00
2022-08-22T12:27:08.008Z,1292.00
2022-08-22T12:28:06.516Z,1292.00
2022-08-22T12:29:15.602Z,1288.00
2022-08-22T12:30:13.003Z,1288.00
2022-08-22T12:31:06.570Z,1288.00
2022-08-22T12:32:06.604Z,1284.00
2022-08-22T12:33:06.617Z,1284.00
2022-08-22T12:34:06.638Z,1284.00
2022-08-22T12:35:13.899Z,1280.00
2022-08-22T12:36:06.677Z,1280.00
2022-08-22T12:37:06.697Z,1284.00
2022-08-22T12:38:28.503Z,1284.00
2022-08-22T12:39:07.835Z,1280.00
2022-08-22T12:40:06.808Z,1280.00